createdAt,value
2022-08-27T00:00:34.672Z,93.65
2022-08-27T00:03:03.246Z,93.40
2022-08-27T00:05:30.848Z,93.59
2022-08-27T00:07:57.453Z,92.99
2022-08-27T00:10:26.948Z,92.57
2022-08-27T00:12:55.711Z,93.01
2022-08-27T00:15:23.105Z,92.92
2022-08-27T00:17:49.863Z,92.91
2022-08-27T00:20:18.467Z,93.58
2022-08-27T00:22:45.652Z,94.12
2022-08-27T00:25:13.054Z,94.70
2022-08-27T00:27:41.261Z,94.37
2022-08-27T00:30:13.313Z,93.76
2022-08-27T00:32:42.591Z,93.96
2022-08-27T00:35:10.530Z,94.14
2022-08-27T00:37:38.156Z,95.09
2022-08-27T00:40:08.377Z,94.65
2022-08-27T00:42:35.236Z,93.88
2022-08-27T00:45:02.327Z,94.23
2022-08-27T00:47:31.831Z,93.28
2022-08-27T00:50:06.417Z,92.73
2022-08-27T00:52:36.688Z,93.31
2022-08-27T00:55:08.972Z,91.94
2022-08-27T00:57:39.031Z,92.94
2022-08-27T01:00:10.540Z,92.47
2022-08-27T01:02:37.481Z,92.10
2022-08-27T01:05:11.312Z,92.38
2022-08-27T01:07:41.254Z,92.19
2022-08-27T01:10:13.149Z,91.80
2022-08-27T01:12:40.173Z,91.20
2022-08-27T01:15:11.006Z,90.80
2022-08-27T01:17:41.378Z,91.76
2022-08-27T01:20:14.524Z,91.49
2022-08-27T01:23:08.216Z,91.34
2022-08-27T01:25:35.273Z,91.62
2022-08-27T01:28:03.834Z,92.15
2022-08-27T01:30:31.582Z,92.72
2022-08-27T01:32:58.267Z,93.12
2022-08-27T01:35:25.439Z,92.69
2022-08-27T01:37:56.985Z,92.61
2022-08-27T01:40:25.311Z,92.95
2022-08-27T01:42:54.664Z,93.14
2022-08-27T01:45:26.440Z,94.23
2022-08-27T01:47:53.301Z,94.42
2022-08-27T01:50:24.050Z,92.69
2022-08-27T01:52:52.245Z,92.04
2022-08-27T01:55:22.992Z,92.17
2022-08-27T01:57:50.117Z,92.35
2022-08-27T02:00:20.593Z,92.19
2022-08-27T02:02:49.117Z,92.94
2022-08-27T02:05:17.022Z,91.83
2022-08-27T02:07:44.819Z,92.30
2022-08-27T02:10:15.640Z,92.46
2022-08-27T02:12:42.459Z,92.55
2022-08-27T02:15:10.051Z,92.76
2022-08-27T02:17:36.667Z,93.60
2022-08-27T02:20:05.475Z,94.02
2022-08-27T02:22:32.317Z,93.96
2022-08-27T02:24:59.270Z,93.61
2022-08-27T02:27:26.009Z,93.77
2022-08-27T02:29:53.249Z,92.85
2022-08-27T02:32:32.307Z,93.19
2022-08-27T02:34:59.455Z,94.36
2022-08-27T02:37:26.597Z,94.00
2022-08-27T02:39:53.447Z,94.02
2022-08-27T02:42:20.351Z,93.64
2022-08-27T02:44:47.712Z,93.59
2022-08-27T02:47:15.481Z,92.86
2022-08-27T02:49:43.171Z,92.98
2022-08-27T02:52:11.409Z,92.67
2022-08-27T02:54:38.246Z,92.94
2022-08-27T02:57:06.335Z,93.90
2022-08-27T02:59:33.015Z,93.69
2022-08-27T03:01:59.932Z,94.36
2022-08-27T03:04:29.048Z,94.76
2022-08-27T03:06:57.057Z,94.34
2022-08-27T03:09:23.845Z,93.62
2022-08-27T03:11:50.717Z,93.90
2022-08-27T03:14:17.458Z,93.63
2022-08-27T03:16:44.175Z,93.50
2022-08-27T03:19:10.999Z,92.98
2022-08-27T03:21:37.761Z,92.28
2022-08-27T03:24:11.712Z,92.43
2022-08-27T03:26:41.464Z,92.45
2022-08-27T03:29:08.578Z,91.51
2022-08-27T03:31:35.259Z,92.60
2022-08-27T03:34:04.624Z,92.24
2022-08-27T03:36:31.859Z,92.41
2022-08-27T03:38:58.783Z,92.44
2022-08-27T03:41:43.869Z,92.20
2022-08-27T03:44:18.180Z,92.90
2022-08-27T03:46:49.641Z,92.95
2022-08-27T03:49:20.347Z,92.83
2022-08-27T03:51:48.619Z,93.14
2022-08-27T03:54:15.833Z,94.03
2022-08-27T03:56:42.586Z,95.00
2022-08-27T03:59:09.213Z,93.61
2022-08-27T04:01:36.403Z,94.40
2022-08-27T04:04:03.497Z,94.08
2022-08-27T04:06:30.288Z,92.36
2022-08-27T04:08:57.045Z,93.40
2022-08-27T04:11:24.163Z,94.12
2022-08-27T04:13:51.450Z,93.52
2022-08-27T04:16:18.754Z,92.96
2022-08-27T04:18:45.405Z,94.58
2022-08-27T04:21:13.875Z,95.73
2022-08-27T04:23:42.416Z,94.82
2022-08-27T04:26:11.878Z,95.24
2022-08-27T04:28:40.547Z,95.54
2022-08-27T04:31:16.628Z,95.52
2022-08-27T04:33:50.725Z,96.19
2022-08-27T04:36:17.868Z,96.08
2022-08-27T04:38:44.674Z,97.08
2022-08-27T04:41:21.836Z,96.11
2022-08-27T04:43:56.856Z,96.62
2022-08-27T04:46:29.625Z,96.11
2022-08-27T04:48:58.928Z,96.72
2022-08-27T04:51:26.456Z,96.57
2022-08-27T04:53:54.333Z,96.13
2022-08-27T04:56:22.820Z,97.22
2022-08-27T04:58:50.836Z,96.59
2022-08-27T05:01:27.803Z,95.84
2022-08-27T05:03:55.029Z,96.95
2022-08-27T05:06:22.966Z,97.15
2022-08-27T05:08:51.026Z,98.38
2022-08-27T05:11:19.198Z,99.03
2022-08-27T05:13:46.344Z,99.48
2022-08-27T05:16:16.658Z,98.59
2022-08-27T05:18:48.529Z,100.00
2022-08-27T05:21:27.661Z,100.00
2022-08-27T05:23:56.345Z,99.29
2022-08-27T05:26:23.332Z,100.00
2022-08-27T05:28:50.869Z,98.91
2022-08-27T05:31:18.552Z,99.61
2022-08-27T05:33:47.262Z,99.92
2022-08-27T05:36:22.715Z,99.66
2022-08-27T05:38:50.796Z,99.62
2022-08-27T05:41:21.110Z,99.96
2022-08-27T05:43:50.440Z,99.78
2022-08-27T05:46:20.674Z,99.31
2022-08-27T05:48:48.822Z,98.66
2022-08-27T05:51:30.543Z,99.45
2022-08-27T05:54:00.018Z,100.00
2022-08-27T05:56:28.845Z,99.23
2022-08-27T05:59:14.691Z,100.00
2022-08-27T06:01:45.532Z,100.00
2022-08-27T06:04:17.488Z,100.00
2022-08-27T06:06:45.731Z,100.00
2022-08-27T06:09:15.584Z,100.00
2022-08-27T06:11:43.632Z,100.00
2022-08-27T06:14:10.764Z,100.00
2022-08-27T06:16:38.679Z,100.00
2022-08-27T06:19:06.532Z,100.00
2022-08-27T06:21:33.655Z,100.00
2022-08-27T06:24:01.072Z,100.00
2022-08-27T06:26:28.221Z,100.00
2022-08-27T06:28:55.446Z,100.00
2022-08-27T06:31:24.673Z,100.00
2022-08-27T06:33:53.735Z,100.00
2022-08-27T06:36:25.525Z,100.00
2022-08-27T06:38:54.656Z,100.00
2022-08-27T06:41:24.241Z,100.00
2022-08-27T06:43:52.199Z,100.00
2022-08-27T06:46:21.084Z,100.00
2022-08-27T06:48:49.713Z,100.00
2022-08-27T06:51:24.682Z,100.00
2022-08-27T06:53:52.746Z,100.00
2022-08-27T06:56:20.536Z,100.00
2022-08-27T06:58:48.962Z,100.00
2022-08-27T07:01:22.562Z,100.00
2022-08-27T07:03:49.640Z,100.00
2022-08-27T07:06:17.343Z,100.00
2022-08-27T07:08:53.164Z,100.00
2022-08-27T07:11:20.972Z,100.00
2022-08-27T07:13:49.155Z,100.00
2022-08-27T07:16:23.162Z,100.00
2022-08-27T07:18:52.407Z,100.00
2022-08-27T07:21:20.584Z,100.00
2022-08-27T07:23:48.838Z,100.00
2022-08-27T07:26:15.937Z,100.00
2022-08-27T07:28:44.311Z,100.00
2022-08-27T07:31:13.344Z,99.85
2022-08-27T07:33:46.114Z,99.75
2022-08-27T07:36:19.486Z,99.15
2022-08-27T07:38:46.237Z,99.01
2022-08-27T07:41:15.209Z,98.46
2022-08-27T07:44:00.594Z,98.02
2022-08-27T07:46:28.400Z,98.74
2022-08-27T07:48:57.671Z,98.07
2022-08-27T07:51:27.499Z,97.03
2022-08-27T07:53:54.504Z,97.28
2022-08-27T07:56:22.417Z,96.96
2022-08-27T07:58:49.755Z,97.15
2022-08-27T08:01:17.476Z,97.28
2022-08-27T08:03:44.690Z,98.47
2022-08-27T08:06:14.315Z,98.34
2022-08-27T08:08:42.160Z,97.80
2022-08-27T08:11:13.259Z,98.31
2022-08-27T08:13:40.145Z,98.20
2022-08-27T08:16:07.203Z,96.86
2022-08-27T08:18:36.197Z,97.53
2022-08-27T08:21:05.480Z,97.66
2022-08-27T08:23:33.890Z,97.13
2022-08-27T08:26:01.262Z,96.90
2022-08-27T08:28:29.397Z,97.05
2022-08-27T08:30:57.012Z,97.86
2022-08-27T08:33:23.893Z,98.32
2022-08-27T08:35:50.792Z,97.64
2022-08-27T08:38:18.761Z,98.13
2022-08-27T08:40:50.402Z,97.22
2022-08-27T08:43:40.737Z,97.85
2022-08-27T08:46:22.103Z,97.64
2022-08-27T08:48:50.623Z,97.47
2022-08-27T08:51:23.675Z,97.92
2022-08-27T08:53:57.709Z,97.63
2022-08-27T08:56:55.194Z,97.63
2022-08-27T08:59:37.332Z,96.11
2022-08-27T09:02:11.300Z,96.51
2022-08-27T09:04:43.724Z,96.75
2022-08-27T09:07:45.787Z,97.32
2022-08-27T09:11:03.918Z,96.34
2022-08-27T09:13:39.489Z,97.00
2022-08-27T09:16:06.808Z,96.78
2022-08-27T09:18:36.931Z,95.58
2022-08-27T09:21:45.553Z,95.27
2022-08-27T09:24:24.556Z,93.72
2022-08-27T09:26:51.577Z,93.57
2022-08-27T09:29:20.614Z,91.56
2022-08-27T09:32:13.605Z,90.95
2022-08-27T09:34:43.680Z,91.79
2022-08-27T09:37:23.479Z,90.97
2022-08-27T09:40:32.253Z,90.54
2022-08-27T09:43:20.331Z,90.91
2022-08-27T09:45:49.728Z,89.66
2022-08-27T09:48:34.826Z,89.21
2022-08-27T09:51:08.982Z,90.31
2022-08-27T09:53:52.316Z,89.28
2022-08-27T09:56:40.540Z,88.91
2022-08-27T09:59:13.084Z,89.25
2022-08-27T10:02:11.991Z,88.25
2022-08-27T10:04:50.967Z,88.96
2022-08-27T10:07:36.947Z,87.44
2022-08-27T10:10:11.306Z,86.04
2022-08-27T10:12:56.692Z,85.67
2022-08-27T10:15:24.949Z,86.82
2022-08-27T10:18:27.797Z,86.03
2022-08-27T10:21:15.613Z,85.17
2022-08-27T10:24:06.372Z,84.96
2022-08-27T10:26:52.819Z,85.91
2022-08-27T10:29:53.241Z,84.38
2022-08-27T10:33:26.984Z,83.46
2022-08-27T10:36:06.088Z,84.94
2022-08-27T10:38:44.804Z,85.41
2022-08-27T10:41:26.073Z,84.99
2022-08-27T10:44:32.138Z,85.10
2022-08-27T10:47:19.609Z,84.54
2022-08-27T10:49:52.922Z,84.80
2022-08-27T10:52:19.672Z,83.39
2022-08-27T10:55:10.597Z,84.22
2022-08-27T10:58:10.122Z,82.71
2022-08-27T11:01:09.316Z,84.41
2022-08-27T11:03:46.676Z,83.40
2022-08-27T11:06:28.264Z,82.01
2022-08-27T11:09:11.347Z,82.42
2022-08-27T11:12:13.786Z,81.80
2022-08-27T11:14:49.122Z,81.90
2022-08-27T11:17:19.337Z,81.79
2022-08-27T11:20:11.063Z,81.33
2022-08-27T11:22:42.516Z,82.16
2022-08-27T11:25:18.070Z,82.11
2022-08-27T11:27:45.713Z,83.25
2022-08-27T11:30:32.048Z,82.96
2022-08-27T11:33:07.287Z,82.76
2022-08-27T11:36:14.045Z,82.62
2022-08-27T11:39:19.122Z,82.64
2022-08-27T11:41:51.422Z,82.51
2022-08-27T11:44:22.539Z,82.14
2022-08-27T11:46:52.391Z,82.28
2022-08-27T11:49:27.908Z,82.36
2022-08-27T11:52:03.505Z,82.32
2022-08-27T11:54:46.048Z,82.10
2022-08-27T11:59:54.448Z,80.99
2022-08-27T12:02:27.579Z,81.58
2022-08-27T12:05:07.464Z,81.25
2022-08-27T12:07:37.407Z,81.59
2022-08-27T12:10:33.702Z,80.50
2022-08-27T12:13:25.496Z,80.65
2022-08-27T12:16:23.906Z,79.74
2022-08-27T12:19:04.242Z,79.51
2022-08-27T12:22:01.873Z,79.70
2022-08-27T12:24:55.640Z,79.16
2022-08-27T12:27:28.967Z,79.53
2022-08-27T12:30:02.785Z,79.51
2022-08-27T12:32:44.608Z,79.49
2022-08-27T12:35:15.031Z,80.80
2022-08-27T12:37:56.935Z,79.97
2022-08-27T12:40:29.921Z,80.70
2022-08-27T12:43:13.570Z,81.06
2022-08-27T12:45:52.697Z,80.13
2022-08-27T12:48:27.351Z,81.25
2022-08-27T12:53:52.052Z,81.34
2022-08-27T12:56:53.189Z,82.04
2022-08-27T12:59:59.215Z,81.56
2022-08-27T13:02:55.369Z,81.71
2022-08-27T13:05:24.040Z,81.40
2022-08-27T13:07:52.441Z,80.88
2022-08-27T13:10:28.785Z,78.75
2022-08-27T13:13:09.497Z,78.90
2022-08-27T13:15:36.510Z,79.54
2022-08-27T13:18:04.782Z,77.95
2022-08-27T13:20:32.673Z,78.46
2022-08-27T13:22:59.602Z,79.12
2022-08-27T13:25:33.330Z,79.40
2022-08-27T13:28:15.557Z,79.26
2022-08-27T13:30:45.404Z,79.75
2022-08-27T13:33:17.523Z,80.42
2022-08-27T13:35:45.201Z,80.01
2022-08-27T13:38:12.908Z,79.46
2022-08-27T13:40:53.796Z,77.96
2022-08-27T13:43:22.228Z,78.43
2022-08-27T13:45:51.587Z,76.25
2022-08-27T13:48:19.271Z,78.22
2022-08-27T13:50:52.137Z,77.44
2022-08-27T13:53:41.388Z,76.51
2022-08-27T13:56:08.582Z,77.57
2022-08-27T13:58:36.676Z,77.30
2022-08-27T14:01:26.214Z,76.93
2022-08-27T14:03:57.972Z,75.34
2022-08-27T14:06:41.542Z,77.55
2022-08-27T14:09:25.593Z,77.33
2022-08-27T14:12:04.648Z,77.44
2022-08-27T14:14:36.820Z,78.75
2022-08-27T14:19:36.268Z,78.51
2022-08-27T14:22:04.356Z,78.42
2022-08-27T14:24:30.973Z,79.94
2022-08-27T14:27:05.826Z,79.44
2022-08-27T14:29:32.440Z,79.42
2022-08-27T14:31:59.142Z,78.93
2022-08-27T14:34:29.508Z,78.35
2022-08-27T14:36:56.144Z,79.40
2022-08-27T14:42:10.794Z,79.84
2022-08-27T14:44:37.952Z,78.64
2022-08-27T14:47:09.402Z,79.12
2022-08-27T14:47:26.398Z,78.66
2022-08-27T14:49:41.486Z,79.14
2022-08-27T14:52:12.238Z,80.08
2022-08-27T14:54:39.542Z,80.41
2022-08-27T14:57:07.232Z,80.59
2022-08-27T14:59:34.768Z,80.56
2022-08-27T15:02:03.210Z,81.20
2022-08-27T15:04:30.953Z,80.42
2022-08-27T15:06:59.870Z,79.24
2022-08-27T15:09:28.402Z,78.46
2022-08-27T15:11:57.191Z,78.48
2022-08-27T15:14:36.273Z,79.11
2022-08-27T15:17:03.361Z,80.00
2022-08-27T15:19:49.000Z,79.83
2022-08-27T15:22:22.413Z,81.70
2022-08-27T15:24:54.415Z,80.44
2022-08-27T15:27:22.186Z,81.55
2022-08-27T15:29:49.348Z,82.50
2022-08-27T15:32:27.859Z,82.41
2022-08-27T15:34:57.034Z,83.03
2022-08-27T15:37:24.784Z,82.42
2022-08-27T15:39:51.533Z,81.55
2022-08-27T15:42:18.728Z,82.21
2022-08-27T15:44:50.142Z,83.17
2022-08-27T15:47:19.588Z,82.65
2022-08-27T15:49:46.671Z,82.98
2022-08-27T15:52:17.208Z,82.82
2022-08-27T15:54:45.022Z,83.85
2022-08-27T15:57:12.146Z,83.41
2022-08-27T15:59:39.672Z,83.41
2022-08-27T16:02:07.949Z,83.75
2022-08-27T16:04:34.981Z,82.71
2022-08-27T16:07:01.655Z,82.75
2022-08-27T16:09:28.377Z,82.08
2022-08-27T16:11:55.473Z,83.50
2022-08-27T16:14:22.314Z,82.64
2022-08-27T16:16:50.398Z,81.81
2022-08-27T16:19:18.227Z,82.43
2022-08-27T16:21:46.180Z,81.66
2022-08-27T16:24:14.089Z,82.50
2022-08-27T16:26:40.762Z,81.23
2022-08-27T16:29:07.523Z,82.02
2022-08-27T16:31:35.460Z,80.88
2022-08-27T16:34:03.244Z,80.99
2022-08-27T16:36:30.797Z,80.95
2022-08-27T16:38:57.512Z,81.59
2022-08-27T16:41:24.552Z,80.83
2022-08-27T16:43:51.245Z,81.82
2022-08-27T16:46:18.177Z,81.97
2022-08-27T16:49:03.528Z,81.72
2022-08-27T16:51:34.499Z,81.61
2022-08-27T16:54:06.468Z,82.14
2022-08-27T16:56:37.130Z,81.58
2022-08-27T16:59:04.919Z,80.79
2022-08-27T17:01:32.231Z,80.19
2022-08-27T17:04:13.834Z,81.33
2022-08-27T17:06:45.546Z,81.83
2022-08-27T17:09:12.655Z,80.93
2022-08-27T17:11:42.945Z,81.03
2022-08-27T17:14:13.182Z,80.83
2022-08-27T17:16:41.840Z,80.69
2022-08-27T17:19:09.874Z,81.78
2022-08-27T17:21:38.520Z,82.14
2022-08-27T17:24:12.313Z,81.46
2022-08-27T17:26:40.315Z,81.69
2022-08-27T17:29:07.103Z,80.80
2022-08-27T17:31:37.306Z,80.84
2022-08-27T17:34:06.725Z,80.37
2022-08-27T17:36:35.012Z,80.96
2022-08-27T17:39:03.183Z,81.20
2022-08-27T17:41:39.912Z,81.33
2022-08-27T17:44:33.497Z,81.15
2022-08-27T17:47:03.425Z,80.01
2022-08-27T17:49:34.510Z,79.73
2022-08-27T17:52:04.483Z,81.30
2022-08-27T17:54:56.836Z,81.46
2022-08-27T17:57:27.658Z,82.17
2022-08-27T17:59:55.493Z,82.08
2022-08-27T18:02:25.494Z,83.25
2022-08-27T18:04:54.013Z,82.91
2022-08-27T18:07:21.498Z,82.66
2022-08-27T18:09:49.123Z,82.48
2022-08-27T18:12:18.742Z,82.40
2022-08-27T18:14:46.442Z,83.26
2022-08-27T18:17:13.975Z,82.89
2022-08-27T18:19:45.493Z,83.78
2022-08-27T18:22:12.733Z,83.40
2022-08-27T18:24:40.601Z,82.92
2022-08-27T18:27:07.273Z,82.79
2022-08-27T18:29:33.849Z,82.95
2022-08-27T18:32:00.667Z,82.97
2022-08-27T18:34:27.870Z,83.00
2022-08-27T18:36:54.554Z,82.64
2022-08-27T18:39:21.147Z,82.52
2022-08-27T18:41:53.445Z,81.30
2022-08-27T18:44:20.085Z,82.44
2022-08-27T18:46:46.715Z,83.83
2022-08-27T18:49:14.671Z,83.30
2022-08-27T18:51:43.879Z,84.61
2022-08-27T18:54:11.442Z,83.10
2022-08-27T18:56:38.533Z,84.32
2022-08-27T18:59:07.011Z,83.19
2022-08-27T19:01:33.933Z,84.52
2022-08-27T19:04:01.252Z,84.18
2022-08-27T19:06:28.369Z,84.59
2022-08-27T19:08:56.521Z,84.50
2022-08-27T19:11:23.508Z,84.34
2022-08-27T19:13:50.953Z,84.13
2022-08-27T19:16:23.706Z,84.15
2022-08-27T19:18:51.080Z,84.42
2022-08-27T19:21:18.014Z,84.53
2022-08-27T19:23:45.419Z,85.56
2022-08-27T19:26:18.120Z,84.73
2022-08-27T19:28:45.361Z,85.63
2022-08-27T19:31:13.379Z,84.98
2022-08-27T19:33:40.607Z,85.63
2022-08-27T19:36:11.454Z,86.20
2022-08-27T19:38:42.072Z,85.61
2022-08-27T19:41:09.063Z,87.18
2022-08-27T19:43:35.713Z,87.08
2022-08-27T19:46:03.651Z,87.58
2022-08-27T19:48:31.401Z,87.21
2022-08-27T19:50:59.216Z,87.24
2022-08-27T19:53:26.201Z,87.20
2022-08-27T19:55:53.017Z,86.72
2022-08-27T19:58:20.521Z,85.99
2022-08-27T20:00:47.345Z,86.96
2022-08-27T20:03:14.569Z,85.55
2022-08-27T20:05:41.561Z,86.40
2022-08-27T20:08:08.978Z,86.24
2022-08-27T20:10:36.581Z,85.85
2022-08-27T20:13:04.678Z,85.57
2022-08-27T20:15:32.024Z,85.60
2022-08-27T20:18:03.077Z,84.76
2022-08-27T20:20:31.462Z,86.01
2022-08-27T20:23:01.017Z,86.17
2022-08-27T20:25:27.765Z,85.47
2022-08-27T20:27:54.884Z,85.86
2022-08-27T20:30:24.360Z,85.98
2022-08-27T20:32:51.043Z,85.83
2022-08-27T20:35:19.026Z,85.85
2022-08-27T20:37:46.461Z,86.22
2022-08-27T20:40:26.501Z,85.80
2022-08-27T20:42:53.536Z,86.12
2022-08-27T20:45:21.241Z,86.20
2022-08-27T20:47:49.417Z,86.04
2022-08-27T20:50:17.785Z,86.69
2022-08-27T20:52:45.704Z,85.16
2022-08-27T20:55:14.376Z,84.08
2022-08-27T20:58:04.409Z,85.26
2022-08-27T21:00:34.730Z,85.68
2022-08-27T21:03:01.789Z,86.26
2022-08-27T21:05:32.518Z,85.66
2022-08-27T21:07:59.456Z,85.58
2022-08-27T21:10:26.816Z,84.58
2022-08-27T21:12:54.033Z,85.39
2022-08-27T21:15:21.265Z,86.51
2022-08-27T21:17:47.898Z,86.54
2022-08-27T21:20:14.804Z,86.84
2022-08-27T21:22:43.941Z,86.71
2022-08-27T21:25:13.219Z,86.53
2022-08-27T21:27:41.242Z,86.62
2022-08-27T21:30:11.368Z,84.96
2022-08-27T21:32:38.842Z,85.30
2022-08-27T21:35:06.464Z,85.45
2022-08-27T21:37:33.391Z,83.72
2022-08-27T21:40:00.619Z,83.75
2022-08-27T21:42:27.475Z,83.80
2022-08-27T21:44:54.087Z,84.36
2022-08-27T21:47:20.722Z,84.65
2022-08-27T21:49:47.557Z,85.13
2022-08-27T21:52:14.306Z,84.73
2022-08-27T21:54:42.900Z,85.44
2022-08-27T21:57:14.007Z,84.67
2022-08-27T21:59:46.443Z,84.55
2022-08-27T22:02:38.274Z,84.38
2022-08-27T22:05:02.385Z,85.40
2022-08-27T22:07:29.440Z,86.24
2022-08-27T22:09:56.045Z,86.34
2022-08-27T22:12:22.781Z,85.65
2022-08-27T22:14:49.938Z,86.33
2022-08-27T22:17:16.902Z,85.98
2022-08-27T22:19:43.832Z,85.56
2022-08-27T22:22:10.537Z,86.40
2022-08-27T22:24:38.019Z,86.21
2022-08-27T22:27:05.092Z,84.62
2022-08-27T22:29:31.783Z,84.27
2022-08-27T22:31:58.684Z,86.15
2022-08-27T22:34:25.425Z,85.25
2022-08-27T22:36:52.160Z,86.08
2022-08-27T22:39:19.122Z,85.87
2022-08-27T22:41:48.762Z,85.38
2022-08-27T22:44:15.875Z,86.24
2022-08-27T22:46:42.977Z,86.02
2022-08-27T22:49:10.050Z,85.53
2022-08-27T22:51:37.041Z,85.96
2022-08-27T22:54:03.904Z,87.05
2022-08-27T22:56:30.731Z,86.90
2022-08-27T22:58:57.564Z,86.34
2022-08-27T23:01:25.055Z,87.44
2022-08-27T23:03:53.443Z,86.97
2022-08-27T23:06:20.206Z,88.32
2022-08-27T23:08:47.010Z,88.22
2022-08-27T23:11:16.027Z,88.17
2022-08-27T23:13:42.712Z,87.71
2022-08-27T23:16:09.850Z,88.20
2022-08-27T23:18:38.764Z,87.49
2022-08-27T23:21:06.169Z,86.70
2022-08-27T23:23:34.329Z,86.71
2022-08-27T23:26:20.056Z,87.49
2022-08-27T23:28:47.515Z,88.53
2022-08-27T23:31:15.339Z,87.92
2022-08-27T23:33:42.489Z,87.40
2022-08-27T23:36:10.187Z,88.41
2022-08-27T23:38:37.614Z,88.37
2022-08-27T23:41:06.287Z,88.28
2022-08-27T23:43:32.881Z,88.33
2022-08-27T23:45:59.715Z,88.63
2022-08-27T23:48:26.925Z,88.71
2022-08-27T23:50:53.738Z,89.58
2022-08-27T23:53:20.465Z,89.42
2022-08-27T23:55:47.465Z,89.41
2022-08-27T23:58:14.161Z,89.75
